Sainte-Marie, Canada
Current Conditions -  °F | °C
As of 1:00 PM on Friday 24 Oct 2014 (Local Time) from CYQB Reporting Station
Broken Clouds Broken Clouds  
Wind Chill: 45°   Ceiling: 8600
Heat Index: 48°   Visibility: 30mi
Dew Point: 34°   Wind: 7mph
Humidity: 57%   Direction: 60°ENE
Pressure: 29.84"   Gusts: NA
Location:  46.43°N, 71.02°W
Report Text: CYQB 241700Z 06006KT 040V120 30SM BKN086 09/01 A2984 RMK AC7 SLP108
Loading
Personal Weather Stations






























Interactive Weather Map
Tropical Storm Tracking
New forecast layout! Learn more

10-Day Weather Forecast

Advertisements
Track Severe Weather on mobile